Time;durP1;ratioP1;P1;durP2;ratioP2;P2;SDS_P1;SDS_P2;PMS_P1;PMS_P2;Temp;Humidity;BMP_temperature;BMP_pressure;BME280_temperature;BME280_humidity;BME280_pressure;Samples;Min_cycle;Max_cycle;Signal;HPM_P1;HPM_P2
2022/04/23 03:02:36;;;;;;;2.80;2.60;;;20.00;45.60;;;;;;4952224;23;45416;-68
2022/04/23 03:05:06;;;;;;;2.60;2.40;;;20.00;45.60;;;;;;4915908;28;46204;-68
2022/04/23 03:07:33;;;;;;;2.45;2.25;;;20.00;45.60;;;;;;4914822;28;45528;-68
2022/04/23 03:09:59;;;;;;;2.80;2.47;;;20.00;45.70;;;;;;4904980;28;45423;-68
2022/04/23 03:12:25;;;;;;;2.17;1.98;;;19.90;45.70;;;;;;4907627;28;45608;-68
2022/04/23 03:14:50;;;;;;;2.70;2.50;;;19.90;45.70;;;;;;4924058;28;45521;-68
2022/04/23 03:17:16;;;;;;;2.40;2.15;;;19.90;45.70;;;;;;4873121;28;47043;-67
2022/04/23 03:19:42;;;;;;;2.53;2.33;;;19.90;45.70;;;;;;4911596;28;45243;-67
2022/04/23 03:22:08;;;;;;;2.63;2.30;;;19.90;45.70;;;;;;4907001;28;45521;-68
2022/04/23 03:24:33;;;;;;;2.75;2.33;;;19.90;45.70;;;;;;4933562;28;45391;-67
2022/04/23 03:26:59;;;;;;;2.53;2.20;;;19.90;45.70;;;;;;4926495;28;45209;-67
2022/04/23 03:29:25;;;;;;;2.70;2.40;;;19.90;45.70;;;;;;4906990;28;45441;-67
2022/04/23 03:31:51;;;;;;;2.65;2.45;;;19.90;45.80;;;;;;4918195;28;45699;-68
2022/04/23 03:34:18;;;;;;;2.22;2.03;;;19.90;45.70;;;;;;4921255;28;45572;-68
2022/04/23 03:36:44;;;;;;;2.50;2.30;;;19.90;45.80;;;;;;4894692;28;45975;-68
2022/04/23 03:39:10;;;;;;;2.40;2.20;;;19.90;45.80;;;;;;4913898;28;44958;-68
2022/04/23 03:41:36;;;;;;;4.10;2.20;;;19.90;45.80;;;;;;4944507;28;45708;-67
2022/04/23 03:44:02;;;;;;;2.28;2.08;;;19.90;45.80;;;;;;4927348;28;45262;-67
2022/04/23 03:46:27;;;;;;;2.88;2.30;;;19.90;45.80;;;;;;4890114;28;45936;-68
2022/04/23 03:48:53;;;;;;;2.22;2.03;;;19.90;45.80;;;;;;4929994;28;45666;-67
2022/04/23 03:51:18;;;;;;;2.47;2.28;;;19.90;45.80;;;;;;4909001;28;44715;-68
2022/04/23 03:53:44;;;;;;;2.47;2.28;;;19.90;45.80;;;;;;4897006;28;45585;-68
2022/04/23 03:56:10;;;;;;;2.55;2.22;;;19.90;45.80;;;;;;4916763;28;46471;-67
2022/04/23 03:58:35;;;;;;;2.60;2.40;;;19.90;45.80;;;;;;4920619;28;44888;-68
2022/04/23 04:01:01;;;;;;;2.55;2.35;;;19.80;45.80;;;;;;4900709;28;45216;-68
2022/04/23 04:03:27;;;;;;;2.30;2.10;;;19.90;45.90;;;;;;4907625;28;45322;-68
2022/04/23 04:05:53;;;;;;;2.72;2.42;;;19.80;45.80;;;;;;4935429;28;46926;-68
2022/04/23 04:08:19;;;;;;;2.38;2.17;;;19.80;45.80;;;;;;4909047;28;45381;-68
2022/04/23 04:10:45;;;;;;;2.17;2.00;;;19.80;45.80;;;;;;4923306;28;45324;-68
2022/04/23 04:13:11;;;;;;;2.45;2.25;;;19.80;45.80;;;;;;4908734;28;45382;-68
2022/04/23 04:15:36;;;;;;;2.47;2.15;;;19.80;45.80;;;;;;4923580;28;45464;-67
2022/04/23 04:18:02;;;;;;;2.60;2.40;;;19.90;45.90;;;;;;4927090;28;45192;-67
2022/04/23 04:20:32;;;;;;;2.50;2.20;;;19.80;45.80;;;;;;4890423;28;45598;-68
2022/04/23 04:22:57;;;;;;;2.25;2.05;;;19.80;45.80;;;;;;4909849;28;45555;-68
2022/04/23 04:25:23;;;;;;;2.20;1.98;;;19.80;45.80;;;;;;4891603;28;45472;-67
2022/04/23 04:27:49;;;;;;;2.30;2.10;;;19.80;45.80;;;;;;4922689;28;45164;-67
2022/04/23 04:30:14;;;;;;;2.50;2.30;;;19.80;45.90;;;;;;4892724;28;45490;-68
2022/04/23 04:32:41;;;;;;;2.05;1.85;;;19.80;45.90;;;;;;4925363;28;45039;-69
2022/04/23 04:35:09;;;;;;;2.13;1.92;;;19.80;45.90;;;;;;4897134;28;45953;-67
2022/04/23 04:37:35;;;;;;;2.70;2.50;;;19.80;45.90;;;;;;4913574;28;45810;-68
2022/04/23 04:40:01;;;;;;;2.53;2.20;;;19.80;45.90;;;;;;4910370;28;45615;-69
2022/04/23 04:42:27;;;;;;;2.38;2.17;;;19.80;45.90;;;;;;4913192;28;44857;-67
2022/04/23 04:44:53;;;;;;;2.40;2.20;;;19.80;45.90;;;;;;4880206;28;46651;-67
2022/04/23 04:47:19;;;;;;;2.30;2.10;;;19.70;45.90;;;;;;4897281;28;45196;-68
2022/04/23 04:49:44;;;;;;;2.78;2.58;;;19.70;45.90;;;;;;4907387;28;44731;-68
2022/04/23 04:52:10;;;;;;;2.50;2.30;;;19.70;45.90;;;;;;4894026;28;45608;-70
2022/04/23 04:54:36;;;;;;;2.33;2.13;;;19.70;45.90;;;;;;4909355;28;46956;-68
2022/04/23 04:57:02;;;;;;;2.40;2.20;;;19.70;46.00;;;;;;4927546;28;45200;-67
2022/04/23 04:59:31;;;;;;;2.80;2.35;;;19.70;46.00;;;;;;4925752;28;45626;-68
2022/04/23 05:01:57;;;;;;;2.60;2.40;;;19.70;46.10;;;;;;4896570;28;45287;-67
2022/04/23 05:04:22;;;;;;;2.47;2.28;;;19.70;46.10;;;;;;4901274;28;46423;-68
2022/04/23 05:06:48;;;;;;;2.45;2.08;;;19.70;46.00;;;;;;4928106;28;45284;-69
2022/04/23 05:09:14;;;;;;;2.35;2.15;;;19.70;46.00;;;;;;4928374;28;45390;-68
2022/04/23 05:11:40;;;;;;;2.47;2.28;;;19.70;46.00;;;;;;4912107;28;45962;-68
2022/04/23 05:14:05;;;;;;;2.47;2.20;;;19.70;46.10;;;;;;4897798;28;45091;-68
2022/04/23 05:16:31;;;;;;;2.00;1.83;;;19.70;46.10;;;;;;4914336;28;45494;-68
2022/04/23 05:18:57;;;;;;;2.22;2.03;;;19.70;46.10;;;;;;4915227;28;45399;-68
2022/04/23 05:21:22;;;;;;;2.15;1.95;;;19.70;46.10;;;;;;4918260;28;45601;-67
2022/04/23 05:23:48;;;;;;;2.85;2.40;;;19.70;46.10;;;;;;4898854;28;47149;-67
2022/04/23 05:26:14;;;;;;;2.50;2.30;;;19.70;46.10;;;;;;4899529;28;44805;-68
2022/04/23 05:28:41;;;;;;;2.40;2.20;;;19.70;46.10;;;;;;4932441;28;45743;-68
2022/04/23 05:31:07;;;;;;;4.40;2.25;;;19.70;46.10;;;;;;4916232;28;45226;-67
2022/04/23 05:33:32;;;;;;;2.30;2.10;;;19.70;46.00;;;;;;4927512;28;46102;-68
2022/04/23 05:35:58;;;;;;;3.00;2.70;;;19.70;46.10;;;;;;4897988;28;45360;-68
2022/04/23 05:38:24;;;;;;;2.38;2.17;;;19.70;46.10;;;;;;4914115;28;45264;-67
2022/04/23 05:40:50;;;;;;;2.85;2.53;;;19.60;46.00;;;;;;4914946;28;45619;-67
2022/04/23 05:43:16;;;;;;;2.58;2.38;;;19.70;46.10;;;;;;4927135;28;45327;-68
2022/04/23 05:45:43;;;;;;;3.42;2.70;;;19.60;46.00;;;;;;4917014;28;45162;-68
2022/04/23 05:48:09;;;;;;;2.70;2.50;;;19.60;46.00;;;;;;4918491;28;45371;-67
2022/04/23 05:50:34;;;;;;;2.47;2.28;;;19.70;46.10;;;;;;4912842;28;45083;-68
2022/04/23 05:53:00;;;;;;;2.17;1.98;;;19.60;46.00;;;;;;4900298;28;46463;-68
2022/04/23 05:55:26;;;;;;;2.42;2.22;;;19.70;46.10;;;;;;4930080;28;45652;-67
2022/04/23 05:57:51;;;;;;;3.08;2.60;;;19.70;46.00;;;;;;4897228;28;45328;-68
2022/04/23 06:00:17;;;;;;;2.50;2.30;;;19.70;46.00;;;;;;4912831;28;45376;-68
2022/04/23 06:02:43;;;;;;;2.63;2.38;;;19.70;46.00;;;;;;4934340;28;45515;-68
2022/04/23 06:05:12;;;;;;;2.30;2.10;;;19.70;46.10;;;;;;4868495;28;45364;-69
2022/04/23 06:07:37;;;;;;;2.75;2.55;;;19.60;46.00;;;;;;4930522;28;44820;-67
2022/04/23 06:10:04;;;;;;;2.50;2.30;;;19.60;45.90;;;;;;4900915;28;45351;-66
2022/04/23 06:12:31;;;;;;;2.72;2.53;;;19.60;46.00;;;;;;4915795;28;45869;-68
2022/04/23 06:14:57;;;;;;;2.35;2.15;;;19.60;45.90;;;;;;4891798;28;45743;-68
2022/04/23 06:17:24;;;;;;;3.25;2.95;;;19.60;45.90;;;;;;4911608;28;45346;-68
2022/04/23 06:19:49;;;;;;;3.03;2.72;;;19.60;45.90;;;;;;4899202;28;45475;-68
2022/04/23 06:22:15;;;;;;;3.13;2.65;;;19.60;45.90;;;;;;4896408;28;45289;-68
2022/04/23 06:24:41;;;;;;;2.58;2.38;;;19.60;45.90;;;;;;4913127;28;45738;-68
2022/04/23 06:27:06;;;;;;;2.90;2.60;;;19.70;45.90;;;;;;4911679;28;46100;-68
2022/04/23 06:29:32;;;;;;;2.60;2.40;;;19.60;45.90;;;;;;4908443;28;44821;-67
2022/04/23 06:31:58;;;;;;;2.63;2.42;;;19.60;45.80;;;;;;4932126;28;45513;-67
2022/04/23 06:34:25;;;;;;;3.10;2.80;;;19.60;45.90;;;;;;4897754;28;45146;-68
2022/04/23 06:36:50;;;;;;;2.70;2.50;;;19.60;45.80;;;;;;4927672;28;45166;-68
2022/04/23 06:39:16;;;;;;;2.85;2.58;;;19.70;45.90;;;;;;4884329;28;45324;-69
2022/04/23 06:41:42;;;;;;;3.13;2.83;;;19.60;45.70;;;;;;4912256;28;46614;-68
2022/04/23 06:44:07;;;;;;;2.58;2.38;;;19.60;45.70;;;;;;4895324;28;45273;-68
2022/04/23 06:46:33;;;;;;;2.47;2.22;;;19.60;45.80;;;;;;4931198;28;45491;-68
2022/04/23 06:49:04;;;;;;;2.88;2.47;;;19.70;45.80;;;;;;4913330;28;45151;-68
2022/04/23 06:51:33;;;;;;;3.22;2.60;;;19.70;45.80;;;;;;4909899;28;45488;-68
2022/04/23 06:53:59;;;;;;;2.70;2.50;;;19.70;45.70;;;;;;4911194;28;45978;-67
2022/04/23 06:56:26;;;;;;;3.10;2.80;;;19.70;45.70;;;;;;4914088;28;45232;-67
2022/04/23 06:58:52;;;;;;;3.50;3.05;;;19.70;45.70;;;;;;4931513;28;45582;-69
2022/04/23 07:01:18;;;;;;;3.17;2.90;;;19.80;45.50;;;;;;4894316;28;47011;-68
2022/04/23 07:03:44;;;;;;;3.00;2.70;;;19.90;45.40;;;;;;4922167;28;48841;-68
2022/04/23 07:06:11;;;;;;;3.42;2.90;;;19.90;45.40;;;;;;4912836;28;45329;-68
2022/04/23 07:08:40;;;;;;;3.35;2.75;;;19.90;45.30;;;;;;4906075;28;45284;-68
2022/04/23 07:11:06;;;;;;;2.47;2.22;;;19.90;45.40;;;;;;4921174;28;45270;-68
2022/04/23 07:13:33;;;;;;;2.45;2.25;;;19.90;46.00;;;;;;4883389;28;45323;-67
2022/04/23 07:15:58;;;;;;;3.00;2.70;;;19.90;45.50;;;;;;4912581;28;45302;-68
2022/04/23 07:18:25;;;;;;;2.63;2.42;;;19.90;45.40;;;;;;4896353;28;46275;-68
2022/04/23 07:20:51;;;;;;;3.65;3.10;;;19.90;45.40;;;;;;4897062;28;46689;-67
2022/04/23 07:26:01;;;;;;;2.80;2.58;;;19.90;45.40;;;;;;4931091;28;45588;-68
2022/04/23 07:28:26;;;;;;;2.83;2.53;;;19.90;45.30;;;;;;4929895;28;44873;-68
2022/04/23 07:30:52;;;;;;;2.58;2.38;;;19.90;45.30;;;;;;4915654;28;45972;-68
2022/04/23 07:38:48;;;;;;;3.05;2.47;;;19.90;45.30;;;;;;4910728;28;45183;-69
2022/04/23 07:41:14;;;;;;;2.90;2.50;;;19.90;45.40;;;;;;4897078;28;45519;-69
2022/04/23 07:43:39;;;;;;;3.47;3.05;;;19.90;45.40;;;;;;4909007;28;45666;-68
2022/04/23 07:46:05;;;;;;;2.92;2.63;;;19.90;45.50;;;;;;4897311;28;45268;-68
2022/04/23 07:48:32;;;;;;;2.70;2.50;;;19.90;45.40;;;;;;4930306;28;46435;-68
2022/04/23 07:50:57;;;;;;;2.90;2.60;;;19.90;45.40;;;;;;4909180;28;46204;-68
2022/04/23 07:53:24;;;;;;;2.90;2.60;;;19.90;45.50;;;;;;4910697;28;45636;-68
2022/04/23 07:55:50;;;;;;;2.75;2.50;;;19.90;45.40;;;;;;4913775;28;45188;-69
2022/04/23 07:58:16;;;;;;;3.33;2.80;;;19.90;45.40;;;;;;4923091;28;45112;-68
2022/04/23 08:00:43;;;;;;;3.70;2.67;;;19.90;45.40;;;;;;4898305;28;45656;-68
2022/04/23 08:03:09;;;;;;;3.08;2.67;;;19.90;45.50;;;;;;4901245;28;46198;-69
2022/04/23 08:05:34;;;;;;;2.65;2.45;;;19.90;45.50;;;;;;4893318;28;45751;-68
2022/04/23 08:08:00;;;;;;;3.30;3.00;;;19.90;45.50;;;;;;4898801;28;45547;-68
2022/04/23 08:10:26;;;;;;;3.15;2.58;;;19.90;45.50;;;;;;4910782;28;45981;-68
2022/04/23 08:12:54;;;;;;;2.95;2.65;;;19.90;45.40;;;;;;4944738;28;45102;-69
2022/04/23 08:15:20;;;;;;;2.83;2.50;;;19.90;46.00;;;;;;4884364;28;45477;-67
2022/04/23 08:17:47;;;;;;;3.95;3.15;;;19.90;45.40;;;;;;4907951;28;45476;-67
2022/04/23 08:20:13;;;;;;;3.35;2.90;;;19.90;45.50;;;;;;4917003;28;46527;-69
2022/04/23 08:22:39;;;;;;;3.45;2.78;;;19.90;45.50;;;;;;4905484;28;45480;-67
2022/04/23 08:25:05;;;;;;;3.60;2.70;;;19.90;45.40;;;;;;4916731;28;46268;-68
2022/04/23 08:27:31;;;;;;;2.95;2.50;;;19.90;45.50;;;;;;4902244;28;45576;-67
2022/04/23 08:32:41;;;;;;;2.70;2.50;;;19.90;45.50;;;;;;4903265;28;45164;-68
2022/04/23 08:35:07;;;;;;;3.78;2.75;;;19.90;45.50;;;;;;4901841;28;44745;-67
2022/04/23 08:37:34;;;;;;;3.60;2.58;;;19.90;45.50;;;;;;4900065;28;45589;-68
2022/04/23 08:40:00;;;;;;;3.00;2.47;;;19.90;45.60;;;;;;4936156;28;46126;-68
2022/04/23 08:42:26;;;;;;;3.03;2.72;;;19.90;45.60;;;;;;4885486;28;45435;-68
2022/04/23 08:44:55;;;;;;;3.13;2.78;;;19.90;45.60;;;;;;4913835;28;44745;-68
2022/04/23 08:47:23;;;;;;;4.55;2.97;;;19.90;45.60;;;;;;4920048;28;45472;-67
2022/04/23 08:49:54;;;;;;;3.28;2.97;;;19.90;45.50;;;;;;4908164;28;46354;-68
2022/04/23 08:52:33;;;;;;;3.70;3.00;;;19.90;45.40;;;;;;4901605;28;44787;-67
2022/04/23 08:55:03;;;;;;;3.95;3.40;;;19.90;45.30;;;;;;4899546;28;45008;-67
2022/04/23 08:57:29;;;;;;;3.58;3.13;;;19.90;45.40;;;;;;4904934;28;45201;-68
2022/04/23 08:59:56;;;;;;;3.42;3.13;;;19.90;45.40;;;;;;4915179;28;47305;-67
2022/04/23 09:02:26;;;;;;;3.55;3.25;;;19.80;45.40;;;;;;4889407;28;45495;-68
2022/04/23 09:04:53;;;;;;;3.65;3.30;;;19.90;45.40;;;;;;4905640;28;45230;-68
2022/04/23 09:07:29;;;;;;;3.97;3.50;;;19.90;45.50;;;;;;4905891;28;44824;-68
2022/04/23 09:09:55;;;;;;;4.20;3.55;;;19.90;45.40;;;;;;4914848;28;45236;-67
2022/04/23 09:12:25;;;;;;;3.92;3.28;;;19.90;45.50;;;;;;4921238;28;45717;-67
2022/04/23 09:14:51;;;;;;;3.50;2.85;;;19.90;45.40;;;;;;4876387;28;45237;-68
2022/04/23 09:25:41;;;;;;;4.43;3.38;;;19.90;45.60;;;;;;4919797;28;45240;-67
2022/04/23 09:28:29;;;;;;;3.65;3.13;;;19.90;45.60;;;;;;4902516;28;45343;-68
2022/04/23 09:30:55;;;;;;;4.38;3.92;;;19.90;45.50;;;;;;4887626;28;46894;-67
2022/04/23 09:33:28;;;;;;;4.20;3.65;;;19.80;45.50;;;;;;4912165;28;44701;-67
2022/04/23 09:35:54;;;;;;;4.47;3.20;;;19.80;45.60;;;;;;4901357;28;45215;-67
2022/04/23 09:38:20;;;;;;;3.95;3.55;;;19.80;45.60;;;;;;4911831;28;45179;-67
2022/04/23 09:40:50;;;;;;;4.30;3.60;;;19.80;45.60;;;;;;4882964;28;46756;-68
2022/04/23 09:43:16;;;;;;;4.20;3.65;;;19.80;45.60;;;;;;4935450;28;45168;-68
2022/04/23 09:45:42;;;;;;;4.05;3.28;;;19.80;45.60;;;;;;4907677;28;45269;-68
2022/04/23 09:48:15;;;;;;;4.28;3.88;;;19.80;45.60;;;;;;4902626;28;45246;-68
2022/04/23 09:50:42;;;;;;;4.35;3.63;;;19.80;45.60;;;;;;4937888;28;45615;-68
2022/04/23 09:53:14;;;;;;;3.83;3.42;;;19.80;45.60;;;;;;4912190;28;45153;-68
2022/04/23 09:55:40;;;;;;;7.00;4.57;;;19.80;45.60;;;;;;4930634;28;44679;-68
2022/04/23 09:58:09;;;;;;;5.07;4.20;;;19.80;45.60;;;;;;4902294;28;45679;-68
2022/04/23 10:00:36;;;;;;;4.93;3.95;;;19.80;45.60;;;;;;4929627;28;45249;-68
2022/04/23 10:03:03;;;;;;;4.15;3.70;;;19.80;45.50;;;;;;4898847;28;45154;-68
2022/04/23 10:05:29;;;;;;;3.90;3.50;;;19.80;45.50;;;;;;4900588;28;44747;-68
2022/04/23 10:07:55;;;;;;;4.60;3.95;;;19.80;45.50;;;;;;4928553;28;45218;-68
2022/04/23 10:10:20;;;;;;;4.88;3.85;;;19.90;45.60;;;;;;4891090;28;45214;-68
2022/04/23 10:12:46;;;;;;;5.72;4.18;;;19.80;45.80;;;;;;4921306;28;45462;-68
2022/04/23 10:15:12;;;;;;;5.35;4.32;;;19.80;45.60;;;;;;4932241;28;45401;-68
2022/04/23 10:17:37;;;;;;;5.05;4.07;;;19.80;45.50;;;;;;4927526;28;45306;-68
2022/04/23 10:20:05;;;;;;;5.43;4.50;;;19.90;45.60;;;;;;4905334;28;45416;-68
2022/04/23 10:22:56;;;;;;;4.97;4.00;;;19.90;45.50;;;;;;4899293;28;45382;-68
2022/04/23 10:25:29;;;;;;;5.95;4.20;;;19.80;45.50;;;;;;4935784;28;45504;-68
2022/04/23 10:27:56;;;;;;;4.82;4.00;;;19.80;45.50;;;;;;4913142;28;46083;-67
2022/04/23 10:30:22;;;;;;;4.95;4.00;;;19.80;45.60;;;;;;4931196;28;46433;-68
2022/04/23 10:32:47;;;;;;;4.43;3.88;;;19.80;45.60;;;;;;4912214;28;45239;-68
2022/04/23 10:35:19;;;;;;;5.47;4.50;;;19.80;45.60;;;;;;4886670;28;45264;-67
2022/04/23 10:37:48;;;;;;;5.65;4.72;;;19.80;45.60;;;;;;4935187;28;45634;-68
2022/04/23 10:40:15;;;;;;;4.35;3.80;;;19.80;45.60;;;;;;4913534;28;45442;-68
2022/04/23 10:43:04;;;;;;;5.90;4.40;;;19.80;45.70;;;;;;4923166;28;45311;-68
2022/04/23 10:45:37;;;;;;;4.53;4.03;;;19.80;45.60;;;;;;4935748;28;45195;-67
2022/04/23 10:48:24;;;;;;;5.72;4.68;;;19.80;45.60;;;;;;4915982;28;45454;-67
2022/04/23 10:51:19;;;;;;;6.03;4.63;;;19.80;45.60;;;;;;4934155;28;45484;-67
2022/04/23 10:53:46;;;;;;;5.47;4.47;;;19.80;45.60;;;;;;4947917;28;45356;-68
2022/04/23 10:56:19;;;;;;;5.13;4.38;;;19.80;45.70;;;;;;4915461;28;45477;-68
2022/04/23 10:58:44;;;;;;;5.47;4.40;;;19.80;45.60;;;;;;4917961;28;45565;-67
2022/04/23 11:01:20;;;;;;;5.50;4.45;;;19.80;45.50;;;;;;4899633;28;45597;-68
2022/04/23 11:03:56;;;;;;;5.55;4.90;;;19.80;45.60;;;;;;4941236;28;45325;-68
2022/04/23 11:12:22;;;;;;;7.03;4.38;;;19.80;45.60;;;;;;4934325;28;45769;-67
2022/04/23 11:14:51;;;;;;;6.45;4.90;;;19.80;45.60;;;;;;4934521;28;45195;-68
2022/04/23 11:17:47;;;;;;;5.28;4.68;;;19.80;45.60;;;;;;4940515;28;45190;-68
2022/04/23 11:20:13;;;;;;;5.40;4.22;;;19.80;45.40;;;;;;4913626;28;45401;-68
2022/04/23 11:22:39;;;;;;;5.90;4.65;;;19.80;45.50;;;;;;4906406;28;45539;-67
2022/04/23 11:25:06;;;;;;;6.13;4.80;;;19.80;45.50;;;;;;4930421;28;45763;-68
2022/04/23 11:27:36;;;;;;;5.68;4.47;;;19.80;45.50;;;;;;4931314;28;46227;-68
2022/04/23 11:30:05;;;;;;;4.97;4.47;;;19.80;45.60;;;;;;4903489;28;46341;-68
2022/04/23 11:32:34;;;;;;;5.05;4.35;;;19.80;46.10;;;;;;4912108;28;45786;-68
2022/04/23 11:35:07;;;;;;;6.43;4.82;;;19.80;45.50;;;;;;4919477;28;45288;-67
2022/04/23 11:37:39;;;;;;;5.53;4.78;;;19.80;45.50;;;;;;4887369;28;45227;-68
2022/04/23 11:40:06;;;;;;;6.85;4.25;;;19.80;45.50;;;;;;4929200;28;45289;-67
2022/04/23 11:42:40;;;;;;;5.55;4.93;;;19.80;45.50;;;;;;4925232;28;45483;-67
2022/04/23 11:45:06;;;;;;;5.68;4.80;;;19.80;45.50;;;;;;4917829;28;45365;-67
2022/04/23 11:47:33;;;;;;;6.03;4.45;;;19.80;45.50;;;;;;4937309;28;45714;-67
2022/04/23 11:50:15;;;;;;;5.95;4.85;;;19.80;45.60;;;;;;4931678;28;45214;-67
2022/04/23 11:52:45;;;;;;;6.30;4.78;;;19.80;45.50;;;;;;4936487;28;45491;-67
2022/04/23 11:55:21;;;;;;;6.60;5.50;;;19.80;45.50;;;;;;4889081;28;45439;-68
2022/04/23 11:57:56;;;;;;;7.07;5.20;;;19.80;45.50;;;;;;4926489;28;45683;-67
2022/04/23 12:00:24;;;;;;;6.47;4.80;;;19.80;45.50;;;;;;4940137;28;46762;-68
2022/04/23 12:02:49;;;;;;;5.97;4.93;;;19.80;45.60;;;;;;4923216;28;45439;-67
2022/04/23 12:05:28;;;;;;;7.82;5.10;;;19.80;45.50;;;;;;4902025;28;45269;-67
2022/04/23 12:07:54;;;;;;;8.00;5.68;;;19.80;45.60;;;;;;4913764;28;45524;-67
2022/04/23 12:10:30;;;;;;;6.20;5.60;;;19.80;45.60;;;;;;4930839;28;45286;-67
2022/04/23 12:12:58;;;;;;;6.65;5.32;;;19.80;45.60;;;;;;4902083;28;46302;-67
2022/04/23 12:15:24;;;;;;;7.45;5.60;;;19.80;45.60;;;;;;4918208;28;45496;-67
2022/04/23 12:17:51;;;;;;;8.23;6.07;;;19.80;45.60;;;;;;4917367;28;45172;-68
2022/04/23 12:20:19;;;;;;;7.97;6.15;;;19.80;45.60;;;;;;4941835;28;45710;-67
2022/04/23 12:22:59;;;;;;;7.13;5.55;;;19.80;45.70;;;;;;4900881;28;45351;-67
2022/04/23 12:25:28;;;;;;;8.77;6.95;;;19.80;45.70;;;;;;4940935;28;45278;-67
2022/04/23 12:27:54;;;;;;;9.05;6.47;;;19.80;45.70;;;;;;4918741;28;45233;-67
2022/04/23 12:42:04;;;;;;;7.55;5.97;;;19.90;45.70;;;;;;4921039;28;44954;-66
2022/04/23 12:44:35;;;;;;;7.93;6.03;;;19.80;45.70;;;;;;4903333;28;47049;-66
2022/04/23 12:47:02;;;;;;;8.13;6.38;;;19.80;45.70;;;;;;4928350;28;44694;-67
2022/04/23 12:49:57;;;;;;;8.35;6.32;;;19.80;45.70;;;;;;4903527;28;45215;-67
2022/04/23 12:52:25;;;;;;;9.32;6.85;;;19.80;45.80;;;;;;4899640;28;45397;-66
2022/04/23 12:55:19;;;;;;;9.23;6.70;;;19.80;45.70;;;;;;4953725;28;45448;-67
2022/04/23 12:57:48;;;;;;;;;;;19.80;45.80;;;;;;4941381;28;45116;-67
2022/04/23 13:00:16;;;;;;;7.97;5.90;;;19.80;46.00;;;;;;4931439;28;45425;-67
2022/04/23 13:02:43;;;;;;;9.63;7.05;;;19.80;45.80;;;;;;4898557;28;45460;-66
2022/04/23 13:05:10;;;;;;;10.70;7.55;;;19.80;45.80;;;;;;4911823;28;45454;-66
2022/04/23 13:10:20;;;;;;;8.18;6.35;;;19.80;45.80;;;;;;4902260;28;45112;-66
2022/04/23 13:12:45;;;;;;;11.60;8.07;;;19.80;45.80;;;;;;4883989;28;45887;-67
2022/04/23 13:15:11;;;;;;;10.18;6.82;;;19.80;45.80;;;;;;4884444;28;45241;-67
2022/04/23 13:17:38;;;;;;;9.48;6.82;;;19.80;45.80;;;;;;4913658;28;45226;-67
2022/04/23 13:20:08;;;;;;;8.88;7.18;;;19.80;45.80;;;;;;4934354;28;45217;-66
2022/04/23 13:22:34;;;;;;;8.40;7.05;;;19.80;45.80;;;;;;4926445;28;45300;-67
2022/04/23 13:25:00;;;;;;;10.52;7.40;;;19.90;45.80;;;;;;4903629;28;45727;-66
2022/04/23 13:27:26;;;;;;;10.52;7.65;;;19.80;45.70;;;;;;4922679;28;45971;-66
2022/04/23 13:29:54;;;;;;;10.93;7.38;;;19.80;45.80;;;;;;4942366;28;45786;-66
2022/04/23 13:32:20;;;;;;;8.98;6.90;;;19.80;45.70;;;;;;4937534;28;45263;-67
2022/04/23 13:34:45;;;;;;;9.55;7.82;;;19.80;45.80;;;;;;4929965;28;46211;-67
2022/04/23 13:37:11;;;;;;;10.02;7.10;;;19.80;45.80;;;;;;4915613;28;44964;-67
2022/04/23 13:39:37;;;;;;;8.63;6.25;;;19.90;46.40;;;;;;4926900;28;45469;-68
2022/04/23 13:42:03;;;;;;;10.07;7.70;;;19.80;45.80;;;;;;4904179;28;45403;-68
2022/04/23 13:44:29;;;;;;;9.43;6.97;;;19.80;45.90;;;;;;4920767;28;46576;-67
2022/04/23 13:46:55;;;;;;;8.68;6.63;;;19.80;45.80;;;;;;4944744;28;45907;-67
2022/04/23 13:49:22;;;;;;;9.07;6.70;;;19.80;45.70;;;;;;4945035;28;45128;-67
2022/04/23 13:51:47;;;;;;;10.25;7.57;;;19.90;45.80;;;;;;4928399;28;45128;-68
2022/04/23 13:54:13;;;;;;;7.78;6.18;;;19.90;45.80;;;;;;4899469;28;46428;-68
2022/04/23 13:56:39;;;;;;;9.25;6.90;;;19.90;45.80;;;;;;4928114;28;44824;-68
2022/04/23 13:59:05;;;;;;;10.45;7.53;;;19.90;45.80;;;;;;4905620;28;45855;-68
2022/04/23 14:01:30;;;;;;;10.02;7.75;;;19.90;45.90;;;;;;4925868;28;45487;-68
2022/04/23 14:12:25;;;;;;;9.43;6.80;;;19.80;45.80;;;;;;4862286;29;46503;-68
2022/04/23 14:14:51;;;;;;;8.77;6.75;;;19.90;45.90;;;;;;4917754;28;45603;-68
2022/04/23 14:17:16;;;;;;;8.88;6.90;;;19.90;45.80;;;;;;4914168;28;45441;-68
2022/04/23 14:19:42;;;;;;;9.40;6.90;;;19.90;45.80;;;;;;4900624;28;45420;-68
2022/04/23 14:22:08;;;;;;;9.70;6.93;;;19.90;45.80;;;;;;4927159;28;45352;-68
2022/04/23 14:24:33;;;;;;;9.75;7.32;;;19.90;45.80;;;;;;4925588;28;46889;-68
2022/04/23 14:26:59;;;;;;;10.63;7.60;;;19.90;45.80;;;;;;4924631;28;45287;-68
2022/04/23 14:29:25;;;;;;;9.98;7.32;;;19.90;45.80;;;;;;4911054;28;45201;-68
2022/04/23 14:31:50;;;;;;;9.38;6.57;;;19.90;45.80;;;;;;4939878;28;45275;-68
2022/04/23 14:34:16;;;;;;;8.55;6.40;;;19.90;45.80;;;;;;4942717;28;45601;-68
2022/04/23 14:36:42;;;;;;;7.70;6.15;;;19.90;45.80;;;;;;4923080;28;45855;-68
2022/04/23 14:39:08;;;;;;;10.40;6.50;;;19.90;45.80;;;;;;4934619;28;45599;-68
2022/04/23 14:41:34;;;;;;;9.48;6.38;;;19.90;45.80;;;;;;4925273;28;46392;-68
2022/04/23 14:43:59;;;;;;;8.60;6.93;;;19.90;46.40;;;;;;4928719;28;47581;-68
2022/04/23 14:46:25;;;;;;;8.80;6.60;;;19.90;45.70;;;;;;4942303;28;45192;-68
2022/04/23 14:48:51;;;;;;;9.30;6.93;;;19.90;45.70;;;;;;4880265;28;45683;-68
2022/04/23 14:54:01;;;;;;;9.65;6.97;;;19.80;45.70;;;;;;4920981;28;45398;-68
2022/04/23 14:56:30;;;;;;;8.13;6.90;;;19.90;45.80;;;;;;4914808;28;45760;-67
2022/04/23 14:58:56;;;;;;;9.02;7.05;;;19.90;45.80;;;;;;4932494;28;45285;-68
2022/04/23 15:01:22;;;;;;;8.35;6.75;;;19.90;45.80;;;;;;4912298;28;45396;-68
2022/04/23 15:03:47;;;;;;;8.02;6.05;;;19.90;45.80;;;;;;4883570;28;46940;-68
2022/04/23 15:06:13;;;;;;;9.85;7.05;;;19.90;45.80;;;;;;4928755;28;45204;-68
2022/04/23 15:08:39;;;;;;;9.65;7.00;;;19.90;46.30;;;;;;4896970;28;45344;-68
2022/04/23 15:11:08;;;;;;;8.52;6.55;;;19.90;45.60;;;;;;4898136;28;44878;-67
2022/04/23 15:13:37;;;;;;;9.63;6.63;;;19.90;45.60;;;;;;4898318;28;45084;-67
2022/04/23 15:16:03;;;;;;;8.65;6.40;;;19.90;45.50;;;;;;4930363;28;45225;-67
2022/04/23 15:18:29;;;;;;;7.97;6.47;;;19.90;45.50;;;;;;4917011;28;45494;-67
2022/04/23 15:20:55;;;;;;;7.82;6.10;;;19.90;45.50;;;;;;4929317;28;45044;-68
2022/04/23 15:23:21;;;;;;;7.97;6.28;;;19.90;45.50;;;;;;4933923;28;45488;-67
2022/04/23 15:25:46;;;;;;;9.07;7.03;;;19.90;45.60;;;;;;4916838;28;46165;-67
2022/04/23 15:28:14;;;;;;;8.63;6.30;;;19.90;45.50;;;;;;4917578;28;45185;-68
2022/04/23 15:30:40;;;;;;;8.15;6.65;;;19.90;45.60;;;;;;4896854;28;45712;-67
2022/04/23 15:33:05;;;;;;;8.93;6.65;;;19.90;45.60;;;;;;4900693;28;45791;-68
2022/04/23 15:35:31;;;;;;;8.93;6.68;;;19.90;45.60;;;;;;4899598;28;45473;-67
2022/04/23 15:37:57;;;;;;;9.27;6.13;;;19.90;45.60;;;;;;4931686;28;45242;-67
2022/04/23 15:40:24;;;;;;;7.88;6.60;;;19.90;45.60;;;;;;4898891;28;45345;-69
2022/04/23 15:42:51;;;;;;;7.38;6.18;;;19.90;45.60;;;;;;4945036;28;46966;-67
2022/04/23 15:45:17;;;;;;;7.07;5.93;;;19.90;45.50;;;;;;4944265;28;45181;-67
2022/04/23 15:47:43;;;;;;;7.20;5.80;;;19.90;45.60;;;;;;4913946;28;45292;-68
2022/04/23 15:50:09;;;;;;;8.38;6.10;;;19.90;45.60;;;;;;4947059;28;44758;-67
2022/04/23 15:52:35;;;;;;;6.80;5.53;;;19.90;45.50;;;;;;4896586;28;45450;-67
2022/04/23 15:55:00;;;;;;;7.68;6.07;;;19.90;45.50;;;;;;4931138;28;45211;-67
2022/04/23 15:57:26;;;;;;;9.18;6.32;;;19.90;45.50;;;;;;4913505;28;44799;-67
2022/04/23 15:59:52;;;;;;;7.95;6.30;;;19.90;45.50;;;;;;4908592;28;44972;-67
2022/04/23 16:02:17;;;;;;;9.55;6.57;;;19.90;45.50;;;;;;4932384;28;46496;-67
2022/04/23 16:04:43;;;;;;;8.90;6.68;;;19.90;45.50;;;;;;4914692;28;45229;-68
2022/04/23 16:07:10;;;;;;;8.07;6.18;;;19.90;45.50;;;;;;4914096;28;45450;-67
2022/04/23 16:09:37;;;;;;;6.57;5.55;;;19.90;45.50;;;;;;4881740;28;45795;-67
2022/04/23 16:12:03;;;;;;;7.70;5.95;;;19.90;45.50;;;;;;4928785;28;47134;-68
2022/04/23 16:14:29;;;;;;;8.55;6.93;;;19.90;45.50;;;;;;4912415;28;45556;-67
2022/04/23 16:16:55;;;;;;;7.22;5.57;;;19.90;45.50;;;;;;4925086;28;45340;-68
2022/04/23 16:19:20;;;;;;;7.93;5.93;;;19.90;45.50;;;;;;4922619;28;45329;-68
2022/04/23 16:21:46;;;;;;;8.90;6.38;;;19.90;45.50;;;;;;4909587;28;45520;-68
2022/04/23 16:24:12;;;;;;;7.75;6.07;;;19.90;45.50;;;;;;4897566;28;44950;-67
2022/04/23 16:26:37;;;;;;;7.57;6.20;;;19.90;45.50;;;;;;4922556;28;44982;-68
2022/04/23 16:29:03;;;;;;;9.20;6.18;;;19.90;45.50;;;;;;4909127;28;46366;-67
2022/04/23 16:31:29;;;;;;;6.95;5.88;;;19.90;45.50;;;;;;4879710;28;47720;-67
2022/04/23 16:33:56;;;;;;;7.32;5.90;;;19.90;45.50;;;;;;4925989;28;45437;-67
2022/04/23 16:47:20;;;;;;;7.13;5.80;;;19.90;45.60;;;;;;4935633;28;45572;-67
2022/04/23 16:49:45;;;;;;;6.88;5.80;;;19.90;45.60;;;;;;4941733;28;45506;-67